sensor_id;sensor_type;location;lat;lon;timestamp;pressure;altitude;pressure_sealevel;temperature;humidity
11099;BME280;12223;42.650;23.364;2022-09-30T00:01:51;94015.94;;;15.53;100.00
11099;BME280;12223;42.650;23.364;2022-09-30T00:04:21;94030.53;;;15.51;100.00
11099;BME280;12223;42.650;23.364;2022-09-30T00:06:49;94042.78;;;15.62;100.00
11099;BME280;12223;42.650;23.364;2022-09-30T00:09:16;94059.56;;;15.42;100.00
11099;BME280;12223;42.650;23.364;2022-09-30T00:11:43;94027.63;;;15.22;100.00
11099;BME280;12223;42.650;23.364;2022-09-30T00:14:14;94019.63;;;15.37;100.00
11099;BME280;12223;42.650;23.364;2022-09-30T00:16:41;94030.81;;;15.39;100.00
11099;BME280;12223;42.650;23.364;2022-09-30T00:19:10;94019.94;;;15.61;100.00
11099;BME280;12223;42.650;23.364;2022-09-30T00:21:37;94061.19;;;15.58;100.00
11099;BME280;12223;42.650;23.364;2022-09-30T00:24:04;94081.63;;;15.27;100.00
11099;BME280;12223;42.650;23.364;2022-09-30T00:26:32;94076.03;;;15.19;100.00
11099;BME280;12223;42.650;23.364;2022-09-30T00:29:00;94048.38;;;15.45;100.00
11099;BME280;12223;42.650;23.364;2022-09-30T00:31:29;94068.88;;;15.29;100.00
11099;BME280;12223;42.650;23.364;2022-09-30T00:33:56;94072.06;;;15.32;100.00
11099;BME280;12223;42.650;23.364;2022-09-30T00:36:40;94077.88;;;15.13;100.00
11099;BME280;12223;42.650;23.364;2022-09-30T00:39:10;94050.25;;;15.04;100.00
11099;BME280;12223;42.650;23.364;2022-09-30T00:41:37;94039.84;;;14.98;100.00
11099;BME280;12223;42.650;23.364;2022-09-30T00:50:27;94040.41;;;15.05;100.00
11099;BME280;12223;42.650;23.364;2022-09-30T00:53:05;94031.34;;;15.06;100.00
11099;BME280;12223;42.650;23.364;2022-09-30T00:55:40;94040.09;;;14.91;100.00
11099;BME280;12223;42.650;23.364;2022-09-30T00:58:11;94012.97;;;14.89;100.00
11099;BME280;12223;42.650;23.364;2022-09-30T01:00:40;94003.41;;;15.18;100.00
11099;BME280;12223;42.650;23.364;2022-09-30T01:03:07;94013.81;;;15.05;100.00
11099;BME280;12223;42.650;23.364;2022-09-30T01:05:34;94020.72;;;15.11;100.00
11099;BME280;12223;42.650;23.364;2022-09-30T01:08:04;93997.31;;;15.23;100.00
11099;BME280;12223;42.650;23.364;2022-09-30T01:10:31;94020.97;;;15.09;100.00
11099;BME280;12223;42.650;23.364;2022-09-30T01:12:58;94035.34;;;15.28;100.00
11099;BME280;12223;42.650;23.364;2022-09-30T01:18:27;94034.56;;;15.23;100.00
11099;BME280;12223;42.650;23.364;2022-09-30T01:24:16;94041.97;;;14.91;100.00
11099;BME280;12223;42.650;23.364;2022-09-30T01:26:58;94040.38;;;14.95;100.00
11099;BME280;12223;42.650;23.364;2022-09-30T01:33:01;94097.31;;;15.24;100.00
11099;BME280;12223;42.650;23.364;2022-09-30T01:35:37;94116.97;;;15.13;100.00
11099;BME280;12223;42.650;23.364;2022-09-30T01:38:12;94138.31;;;15.33;100.00
11099;BME280;12223;42.650;23.364;2022-09-30T01:40:44;94150.50;;;15.24;100.00
11099;BME280;12223;42.650;23.364;2022-09-30T01:43:20;94144.94;;;15.25;100.00
11099;BME280;12223;42.650;23.364;2022-09-30T01:45:55;94154.53;;;15.26;100.00
11099;BME280;12223;42.650;23.364;2022-09-30T01:48:32;94147.53;;;15.05;100.00
11099;BME280;12223;42.650;23.364;2022-09-30T01:51:03;94123.09;;;15.03;100.00
11099;BME280;12223;42.650;23.364;2022-09-30T01:53:37;94131.06;;;15.08;100.00
11099;BME280;12223;42.650;23.364;2022-09-30T01:56:11;94127.31;;;14.99;100.00
11099;BME280;12223;42.650;23.364;2022-09-30T01:58:42;94129.38;;;14.77;100.00
11099;BME280;12223;42.650;23.364;2022-09-30T02:01:16;94103.78;;;14.61;100.00
11099;BME280;12223;42.650;23.364;2022-09-30T02:03:48;94117.31;;;14.49;100.00
11099;BME280;12223;42.650;23.364;2022-09-30T02:06:19;94121.47;;;14.35;100.00
11099;BME280;12223;42.650;23.364;2022-09-30T02:08:52;94134.19;;;14.33;100.00
11099;BME280;12223;42.650;23.364;2022-09-30T02:11:24;94126.59;;;14.46;100.00
11099;BME280;12223;42.650;23.364;2022-09-30T02:13:55;94143.34;;;14.47;100.00
11099;BME280;12223;42.650;23.364;2022-09-30T02:16:28;94148.53;;;14.32;100.00
11099;BME280;12223;42.650;23.364;2022-09-30T02:19:04;94121.41;;;14.25;100.00
11099;BME280;12223;42.650;23.364;2022-09-30T02:21:37;94121.34;;;14.15;100.00
11099;BME280;12223;42.650;23.364;2022-09-30T02:24:08;94110.22;;;14.18;100.00
11099;BME280;12223;42.650;23.364;2022-09-30T02:26:38;94122.09;;;14.05;100.00
11099;BME280;12223;42.650;23.364;2022-09-30T02:29:08;94133.16;;;13.92;100.00
11099;BME280;12223;42.650;23.364;2022-09-30T02:31:40;94137.41;;;13.93;100.00
11099;BME280;12223;42.650;23.364;2022-09-30T02:34:11;94151.63;;;13.77;100.00
11099;BME280;12223;42.650;23.364;2022-09-30T02:36:43;94146.84;;;13.79;100.00
11099;BME280;12223;42.650;23.364;2022-09-30T02:39:15;94157.13;;;13.65;100.00
11099;BME280;12223;42.650;23.364;2022-09-30T02:41:48;94141.72;;;13.67;100.00
11099;BME280;12223;42.650;23.364;2022-09-30T02:44:20;94111.06;;;13.81;100.00
11099;BME280;12223;42.650;23.364;2022-09-30T02:46:53;94123.88;;;13.94;100.00
11099;BME280;12223;42.650;23.364;2022-09-30T02:49:30;94145.78;;;13.80;100.00
11099;BME280;12223;42.650;23.364;2022-09-30T02:52:10;94135.81;;;13.60;100.00
11099;BME280;12223;42.650;23.364;2022-09-30T02:54:47;94145.31;;;13.51;100.00
11099;BME280;12223;42.650;23.364;2022-09-30T02:57:21;94135.25;;;13.53;100.00
11099;BME280;12223;42.650;23.364;2022-09-30T02:59:50;94154.09;;;13.56;100.00
11099;BME280;12223;42.650;23.364;2022-09-30T03:02:18;94141.53;;;13.47;100.00
11099;BME280;12223;42.650;23.364;2022-09-30T03:04:49;94145.09;;;13.25;100.00
11099;BME280;12223;42.650;23.364;2022-09-30T03:07:16;94140.78;;;13.19;100.00
11099;BME280;12223;42.650;23.364;2022-09-30T03:09:43;94141.88;;;13.23;100.00
11099;BME280;12223;42.650;23.364;2022-09-30T03:12:21;94135.31;;;13.31;100.00
11099;BME280;12223;42.650;23.364;2022-09-30T03:15:06;94153.50;;;13.49;100.00
11099;BME280;12223;42.650;23.364;2022-09-30T03:17:49;94146.19;;;13.61;100.00
11099;BME280;12223;42.650;23.364;2022-09-30T03:20:33;94147.59;;;13.69;100.00
11099;BME280;12223;42.650;23.364;2022-09-30T03:23:18;94142.31;;;13.74;100.00
11099;BME280;12223;42.650;23.364;2022-09-30T03:25:54;94125.78;;;13.67;100.00
11099;BME280;12223;42.650;23.364;2022-09-30T03:28:26;94037.53;;;13.40;100.00
11099;BME280;12223;42.650;23.364;2022-09-30T03:31:02;94070.44;;;13.81;100.00
11099;BME280;12223;42.650;23.364;2022-09-30T03:33:37;94064.31;;;13.75;100.00
11099;BME280;12223;42.650;23.364;2022-09-30T03:36:08;94071.19;;;13.71;100.00
11099;BME280;12223;42.650;23.364;2022-09-30T03:38:45;94082.13;;;13.85;100.00
11099;BME280;12223;42.650;23.364;2022-09-30T03:41:19;94090.97;;;13.95;100.00
11099;BME280;12223;42.650;23.364;2022-09-30T03:43:50;94105.34;;;14.04;100.00
11099;BME280;12223;42.650;23.364;2022-09-30T03:46:21;94108.53;;;14.01;100.00
11099;BME280;12223;42.650;23.364;2022-09-30T03:48:52;94110.13;;;14.02;100.00
11099;BME280;12223;42.650;23.364;2022-09-30T03:51:22;94106.88;;;13.90;100.00
11099;BME280;12223;42.650;23.364;2022-09-30T03:53:49;94112.72;;;13.92;100.00
11099;BME280;12223;42.650;23.364;2022-09-30T03:56:23;94106.97;;;14.10;100.00
11099;BME280;12223;42.650;23.364;2022-09-30T03:58:50;94105.88;;;14.01;100.00
11099;BME280;12223;42.650;23.364;2022-09-30T04:01:18;94110.50;;;14.16;100.00
11099;BME280;12223;42.650;23.364;2022-09-30T04:03:46;94107.25;;;14.09;100.00
11099;BME280;12223;42.650;23.364;2022-09-30T04:06:13;94092.94;;;14.15;100.00
11099;BME280;12223;42.650;23.364;2022-09-30T04:08:42;94106.28;;;14.25;100.00
11099;BME280;12223;42.650;23.364;2022-09-30T04:11:09;94112.63;;;14.19;100.00
11099;BME280;12223;42.650;23.364;2022-09-30T04:13:35;94112.22;;;14.42;100.00
11099;BME280;12223;42.650;23.364;2022-09-30T04:16:03;94124.44;;;14.43;100.00
11099;BME280;12223;42.650;23.364;2022-09-30T04:18:30;94125.66;;;14.26;100.00
11099;BME280;12223;42.650;23.364;2022-09-30T04:20:56;94124.63;;;14.27;100.00
11099;BME280;12223;42.650;23.364;2022-09-30T04:23:24;94109.47;;;14.27;100.00
11099;BME280;12223;42.650;23.364;2022-09-30T04:25:52;94101.09;;;14.51;100.00
11099;BME280;12223;42.650;23.364;2022-09-30T04:28:20;94109.31;;;14.44;100.00
11099;BME280;12223;42.650;23.364;2022-09-30T04:30:47;94098.25;;;14.67;100.00
11099;BME280;12223;42.650;23.364;2022-09-30T04:33:14;94119.13;;;14.38;100.00
11099;BME280;12223;42.650;23.364;2022-09-30T04:35:41;94113.31;;;14.46;100.00
11099;BME280;12223;42.650;23.364;2022-09-30T04:38:08;94116.72;;;14.42;100.00
11099;BME280;12223;42.650;23.364;2022-09-30T04:40:36;94099.59;;;14.18;100.00
11099;BME280;12223;42.650;23.364;2022-09-30T04:43:05;94065.09;;;14.23;100.00
11099;BME280;12223;42.650;23.364;2022-09-30T04:45:31;94082.59;;;14.14;100.00
11099;BME280;12223;42.650;23.364;2022-09-30T04:47:58;94050.75;;;14.19;100.00
11099;BME280;12223;42.650;23.364;2022-09-30T04:50:25;94042.53;;;14.30;100.00
11099;BME280;12223;42.650;23.364;2022-09-30T04:52:52;94079.22;;;14.28;100.00
11099;BME280;12223;42.650;23.364;2022-09-30T04:55:20;94089.31;;;14.36;100.00
11099;BME280;12223;42.650;23.364;2022-09-30T04:57:48;94099.09;;;14.21;100.00
11099;BME280;12223;42.650;23.364;2022-09-30T05:00:17;94105.03;;;14.38;100.00
11099;BME280;12223;42.650;23.364;2022-09-30T05:02:44;94110.84;;;14.35;100.00
11099;BME280;12223;42.650;23.364;2022-09-30T05:05:12;94089.19;;;14.63;100.00
11099;BME280;12223;42.650;23.364;2022-09-30T05:07:39;94105.16;;;14.63;100.00
11099;BME280;12223;42.650;23.364;2022-09-30T05:10:07;94134.91;;;14.60;100.00
11099;BME280;12223;42.650;23.364;2022-09-30T05:12:35;94121.63;;;14.60;100.00
11099;BME280;12223;42.650;23.364;2022-09-30T05:15:02;94111.81;;;14.66;100.00
11099;BME280;12223;42.650;23.364;2022-09-30T05:17:30;94113.44;;;14.72;100.00
11099;BME280;12223;42.650;23.364;2022-09-30T05:19:57;94125.94;;;14.81;100.00
11099;BME280;12223;42.650;23.364;2022-09-30T05:22:24;94135.81;;;14.96;100.00
11099;BME280;12223;42.650;23.364;2022-09-30T05:24:51;94163.63;;;14.73;100.00
11099;BME280;12223;42.650;23.364;2022-09-30T05:27:18;94180.72;;;14.93;100.00
11099;BME280;12223;42.650;23.364;2022-09-30T05:29:45;94187.63;;;14.88;100.00
11099;BME280;12223;42.650;23.364;2022-09-30T05:32:12;94174.13;;;15.05;100.00
11099;BME280;12223;42.650;23.364;2022-09-30T05:34:40;94178.34;;;14.91;100.00
11099;BME280;12223;42.650;23.364;2022-09-30T05:37:10;94160.88;;;15.10;100.00
11099;BME280;12223;42.650;23.364;2022-09-30T05:39:37;94221.22;;;15.05;100.00
11099;BME280;12223;42.650;23.364;2022-09-30T05:42:04;94204.72;;;14.98;100.00
11099;BME280;12223;42.650;23.364;2022-09-30T05:44:30;94189.34;;;15.15;100.00
11099;BME280;12223;42.650;23.364;2022-09-30T05:46:57;94224.75;;;15.25;100.00
11099;BME280;12223;42.650;23.364;2022-09-30T05:49:24;94229.53;;;15.23;100.00
11099;BME280;12223;42.650;23.364;2022-09-30T05:51:53;94227.41;;;15.30;100.00
11099;BME280;12223;42.650;23.364;2022-09-30T05:54:20;94227.72;;;15.39;100.00
11099;BME280;12223;42.650;23.364;2022-09-30T05:56:49;94234.72;;;15.55;100.00
11099;BME280;12223;42.650;23.364;2022-09-30T05:59:17;94247.69;;;15.52;100.00
11099;BME280;12223;42.650;23.364;2022-09-30T06:01:44;94260.31;;;15.77;100.00
11099;BME280;12223;42.650;23.364;2022-09-30T06:04:11;94279.75;;;15.77;100.00
11099;BME280;12223;42.650;23.364;2022-09-30T06:06:38;94282.97;;;15.89;100.00
11099;BME280;12223;42.650;23.364;2022-09-30T06:09:06;94310.63;;;15.78;100.00
11099;BME280;12223;42.650;23.364;2022-09-30T06:11:33;94327.19;;;16.00;100.00
11099;BME280;12223;42.650;23.364;2022-09-30T06:14:00;94327.72;;;16.13;100.00
11099;BME280;12223;42.650;23.364;2022-09-30T06:16:27;94347.97;;;16.08;100.00
11099;BME280;12223;42.650;23.364;2022-09-30T06:18:53;94346.63;;;15.91;100.00
11099;BME280;12223;42.650;23.364;2022-09-30T06:21:20;94317.38;;;16.21;100.00
11099;BME280;12223;42.650;23.364;2022-09-30T06:23:47;94329.09;;;16.40;100.00
11099;BME280;12223;42.650;23.364;2022-09-30T06:26:15;94340.84;;;16.49;100.00
11099;BME280;12223;42.650;23.364;2022-09-30T06:28:42;94364.06;;;16.69;100.00
11099;BME280;12223;42.650;23.364;2022-09-30T06:31:09;94446.50;;;18.21;100.00
11099;BME280;12223;42.650;23.364;2022-09-30T06:33:36;94549.69;;;18.92;100.00
11099;BME280;12223;42.650;23.364;2022-09-30T06:36:04;94563.22;;;18.51;100.00
11099;BME280;12223;42.650;23.364;2022-09-30T06:38:31;94576.66;;;18.31;100.00
11099;BME280;12223;42.650;23.364;2022-09-30T06:40:58;94561.56;;;18.75;100.00
11099;BME280;12223;42.650;23.364;2022-09-30T06:43:27;94579.97;;;18.82;100.00
11099;BME280;12223;42.650;23.364;2022-09-30T06:45:54;94585.91;;;18.74;100.00
11099;BME280;12223;42.650;23.364;2022-09-30T06:48:21;94600.75;;;19.00;100.00
11099;BME280;12223;42.650;23.364;2022-09-30T06:50:48;94603.59;;;19.19;100.00
11099;BME280;12223;42.650;23.364;2022-09-30T06:53:20;94613.56;;;19.08;100.00
11099;BME280;12223;42.650;23.364;2022-09-30T06:55:46;94621.06;;;19.06;100.00
11099;BME280;12223;42.650;23.364;2022-09-30T06:58:14;94621.78;;;19.27;100.00
11099;BME280;12223;42.650;23.364;2022-09-30T07:00:42;94633.28;;;19.22;100.00
11099;BME280;12223;42.650;23.364;2022-09-30T07:03:21;94639.84;;;19.50;100.00
11099;BME280;12223;42.650;23.364;2022-09-30T07:05:56;94648.84;;;20.03;100.00
11099;BME280;12223;42.650;23.364;2022-09-30T07:08:24;94638.56;;;19.38;100.00
11099;BME280;12223;42.650;23.364;2022-09-30T07:10:54;94637.22;;;19.35;100.00
11099;BME280;12223;42.650;23.364;2022-09-30T07:13:21;94645.53;;;19.39;100.00
11099;BME280;12223;42.650;23.364;2022-09-30T07:15:49;94655.22;;;18.70;100.00
11099;BME280;12223;42.650;23.364;2022-09-30T07:18:20;94652.91;;;19.13;100.00
11099;BME280;12223;42.650;23.364;2022-09-30T07:20:48;94659.47;;;19.36;100.00
11099;BME280;12223;42.650;23.364;2022-09-30T07:23:15;94650.16;;;18.43;100.00
11099;BME280;12223;42.650;23.364;2022-09-30T07:25:50;94638.59;;;18.73;100.00
11099;BME280;12223;42.650;23.364;2022-09-30T07:28:18;94655.81;;;19.16;100.00
11099;BME280;12223;42.650;23.364;2022-09-30T07:30:45;94665.53;;;19.56;100.00
11099;BME280;12223;42.650;23.364;2022-09-30T07:33:13;94678.84;;;19.66;100.00
11099;BME280;12223;42.650;23.364;2022-09-30T07:35:48;94678.25;;;20.14;100.00
11099;BME280;12223;42.650;23.364;2022-09-30T07:38:15;94695.56;;;20.26;100.00
11099;BME280;12223;42.650;23.364;2022-09-30T07:40:50;94678.25;;;20.48;100.00
11099;BME280;12223;42.650;23.364;2022-09-30T07:43:17;94681.34;;;20.60;100.00
11099;BME280;12223;42.650;23.364;2022-09-30T07:45:45;94671.38;;;20.31;100.00
11099;BME280;12223;42.650;23.364;2022-09-30T07:48:13;94679.81;;;20.20;100.00
11099;BME280;12223;42.650;23.364;2022-09-30T07:50:54;94675.63;;;20.08;100.00
11099;BME280;12223;42.650;23.364;2022-09-30T07:53:21;94675.50;;;19.90;100.00
11099;BME280;12223;42.650;23.364;2022-09-30T07:55:48;94668.22;;;19.56;100.00
11099;BME280;12223;42.650;23.364;2022-09-30T07:58:14;94679.78;;;19.52;100.00
11099;BME280;12223;42.650;23.364;2022-09-30T08:00:41;94676.31;;;19.46;100.00
11099;BME280;12223;42.650;23.364;2022-09-30T08:03:08;94669.06;;;19.52;100.00
11099;BME280;12223;42.650;23.364;2022-09-30T08:05:39;94689.41;;;19.53;100.00
11099;BME280;12223;42.650;23.364;2022-09-30T08:08:06;94693.56;;;19.20;100.00
11099;BME280;12223;42.650;23.364;2022-09-30T08:10:33;94696.69;;;19.47;100.00
11099;BME280;12223;42.650;23.364;2022-09-30T08:13:00;94690.78;;;19.35;100.00
11099;BME280;12223;42.650;23.364;2022-09-30T08:15:27;94701.69;;;19.59;100.00
11099;BME280;12223;42.650;23.364;2022-09-30T08:17:54;94700.78;;;19.79;100.00
11099;BME280;12223;42.650;23.364;2022-09-30T08:20:20;94703.91;;;19.37;100.00
11099;BME280;12223;42.650;23.364;2022-09-30T08:22:51;94688.00;;;19.01;100.00
11099;BME280;12223;42.650;23.364;2022-09-30T08:25:18;94710.09;;;19.32;100.00
11099;BME280;12223;42.650;23.364;2022-09-30T08:27:44;94704.38;;;18.90;100.00
11099;BME280;12223;42.650;23.364;2022-09-30T08:30:11;94693.31;;;19.11;100.00
11099;BME280;12223;42.650;23.364;2022-09-30T08:32:38;94711.72;;;19.28;100.00
11099;BME280;12223;42.650;23.364;2022-09-30T08:35:05;94714.72;;;19.21;100.00
11099;BME280;12223;42.650;23.364;2022-09-30T08:37:32;94718.78;;;18.99;100.00
11099;BME280;12223;42.650;23.364;2022-09-30T08:40:00;94714.41;;;19.23;100.00
11099;BME280;12223;42.650;23.364;2022-09-30T08:42:36;94715.19;;;19.28;100.00
11099;BME280;12223;42.650;23.364;2022-09-30T08:45:18;94713.59;;;19.27;100.00
11099;BME280;12223;42.650;23.364;2022-09-30T08:47:52;94720.28;;;19.30;100.00
11099;BME280;12223;42.650;23.364;2022-09-30T08:50:27;94724.53;;;19.46;100.00
11099;BME280;12223;42.650;23.364;2022-09-30T08:52:58;94718.81;;;19.63;100.00
11099;BME280;12223;42.650;23.364;2022-09-30T08:55:34;94727.88;;;19.67;100.00
11099;BME280;12223;42.650;23.364;2022-09-30T08:58:05;94717.72;;;19.64;100.00
11099;BME280;12223;42.650;23.364;2022-09-30T09:00:40;94732.69;;;19.70;100.00
11099;BME280;12223;42.650;23.364;2022-09-30T09:03:10;94732.75;;;19.65;100.00
11099;BME280;12223;42.650;23.364;2022-09-30T09:05:44;94729.44;;;19.78;100.00
11099;BME280;12223;42.650;23.364;2022-09-30T09:08:21;94732.63;;;19.85;100.00
11099;BME280;12223;42.650;23.364;2022-09-30T09:10:54;94736.53;;;20.03;100.00
11099;BME280;12223;42.650;23.364;2022-09-30T09:13:38;94738.44;;;19.92;100.00
11099;BME280;12223;42.650;23.364;2022-09-30T09:16:12;94735.75;;;19.97;100.00
11099;BME280;12223;42.650;23.364;2022-09-30T09:18:52;94731.66;;;20.10;100.00
11099;BME280;12223;42.650;23.364;2022-09-30T09:21:30;94742.91;;;20.07;100.00
11099;BME280;12223;42.650;23.364;2022-09-30T09:24:02;94741.69;;;19.89;100.00
11099;BME280;12223;42.650;23.364;2022-09-30T09:26:35;94746.78;;;19.91;100.00
11099;BME280;12223;42.650;23.364;2022-09-30T09:29:21;94762.31;;;19.94;100.00
11099;BME280;12223;42.650;23.364;2022-09-30T09:31:52;94756.28;;;20.12;100.00
11099;BME280;12223;42.650;23.364;2022-09-30T09:34:19;94738.72;;;20.35;100.00
11099;BME280;12223;42.650;23.364;2022-09-30T09:36:54;94750.47;;;20.39;100.00
11099;BME280;12223;42.650;23.364;2022-09-30T09:39:56;94750.47;;;20.39;100.00
11099;BME280;12223;42.650;23.364;2022-09-30T09:42:38;94749.09;;;20.46;100.00
11099;BME280;12223;42.650;23.364;2022-09-30T09:45:12;94738.25;;;20.57;100.00
11099;BME280;12223;42.650;23.364;2022-09-30T09:47:49;94745.38;;;20.71;100.00
11099;BME280;12223;42.650;23.364;2022-09-30T09:50:20;94741.22;;;20.84;100.00
11099;BME280;12223;42.650;23.364;2022-09-30T09:52:59;94740.66;;;21.16;100.00
11099;BME280;12223;42.650;23.364;2022-09-30T09:55:30;94750.47;;;21.25;100.00
11099;BME280;12223;42.650;23.364;2022-09-30T09:58:06;94747.59;;;21.41;100.00
11099;BME280;12223;42.650;23.364;2022-09-30T10:00:33;94743.25;;;21.45;100.00
11099;BME280;12223;42.650;23.364;2022-09-30T10:03:20;94749.25;;;21.60;97.36
11099;BME280;12223;42.650;23.364;2022-09-30T10:05:59;94737.53;;;21.51;100.00
11099;BME280;12223;42.650;23.364;2022-09-30T10:08:27;94758.94;;;21.80;96.15
11099;BME280;12223;42.650;23.364;2022-09-30T10:10:57;94751.06;;;21.84;87.93
11099;BME280;12223;42.650;23.364;2022-09-30T10:13:29;94748.41;;;22.02;89.17
11099;BME280;12223;42.650;23.364;2022-09-30T10:15:57;94744.28;;;22.10;87.05
11099;BME280;12223;42.650;23.364;2022-09-30T10:18:27;94748.25;;;22.50;86.57
11099;BME280;12223;42.650;23.364;2022-09-30T10:20:59;94744.66;;;22.55;86.25
11099;BME280;12223;42.650;23.364;2022-09-30T10:23:29;94739.22;;;22.41;80.94
11099;BME280;12223;42.650;23.364;2022-09-30T10:25:59;94745.19;;;22.70;81.25
11099;BME280;12223;42.650;23.364;2022-09-30T10:28:31;94738.25;;;22.83;76.13
11099;BME280;12223;42.650;23.364;2022-09-30T10:31:01;94730.91;;;23.02;74.24
11099;BME280;12223;42.650;23.364;2022-09-30T10:33:33;94740.09;;;23.01;72.02
11099;BME280;12223;42.650;23.364;2022-09-30T10:36:04;94731.41;;;22.91;69.79
11099;BME280;12223;42.650;23.364;2022-09-30T10:38:33;94730.53;;;22.95;67.37
11099;BME280;12223;42.650;23.364;2022-09-30T10:41:03;94729.94;;;23.12;72.66
11099;BME280;12223;42.650;23.364;2022-09-30T10:43:37;94730.44;;;23.00;73.36
11099;BME280;12223;42.650;23.364;2022-09-30T10:46:07;94728.44;;;23.06;76.87
11099;BME280;12223;42.650;23.364;2022-09-30T10:48:35;94736.72;;;23.23;76.58
11099;BME280;12223;42.650;23.364;2022-09-30T10:51:04;94740.91;;;23.29;71.54
11099;BME280;12223;42.650;23.364;2022-09-30T10:53:34;94730.53;;;23.22;66.69
11099;BME280;12223;42.650;23.364;2022-09-30T10:56:07;94734.63;;;23.34;70.51
11099;BME280;12223;42.650;23.364;2022-09-30T10:58:42;94727.31;;;23.34;68.49
11099;BME280;12223;42.650;23.364;2022-09-30T11:01:18;94743.00;;;23.46;64.55
11099;BME280;12223;42.650;23.364;2022-09-30T11:03:53;94746.72;;;23.63;63.86
11099;BME280;12223;42.650;23.364;2022-09-30T11:06:27;94738.13;;;23.75;60.31
11099;BME280;12223;42.650;23.364;2022-09-30T11:09:02;94743.47;;;23.89;63.48
11099;BME280;12223;42.650;23.364;2022-09-30T11:11:35;94739.38;;;23.78;58.80
11099;BME280;12223;42.650;23.364;2022-09-30T11:14:25;94741.19;;;23.82;58.26
11099;BME280;12223;42.650;23.364;2022-09-30T11:17:02;94655.38;;;23.48;56.14
11099;BME280;12223;42.650;23.364;2022-09-30T11:19:46;94749.03;;;24.06;57.88
11099;BME280;12223;42.650;23.364;2022-09-30T11:22:26;94738.84;;;24.03;57.16
11099;BME280;12223;42.650;23.364;2022-09-30T11:24:56;94676.78;;;23.81;53.08
11099;BME280;12223;42.650;23.364;2022-09-30T11:27:33;94738.47;;;24.32;54.05
11099;BME280;12223;42.650;23.364;2022-09-30T11:30:12;94739.66;;;24.39;53.32
11099;BME280;12223;42.650;23.364;2022-09-30T11:33:02;94738.41;;;24.68;50.59
11099;BME280;12223;42.650;23.364;2022-09-30T11:35:41;94741.09;;;24.68;48.55
11099;BME280;12223;42.650;23.364;2022-09-30T11:38:20;94743.38;;;24.74;48.97
11099;BME280;12223;42.650;23.364;2022-09-30T11:40:58;94740.88;;;24.78;48.00
11099;BME280;12223;42.650;23.364;2022-09-30T11:43:34;94751.50;;;24.97;47.62
11099;BME280;12223;42.650;23.364;2022-09-30T11:46:17;94745.00;;;25.06;46.40
11099;BME280;12223;42.650;23.364;2022-09-30T11:51:38;94745.19;;;25.10;46.09
11099;BME280;12223;42.650;23.364;2022-09-30T11:54:23;94748.44;;;24.90;46.57
11099;BME280;12223;42.650;23.364;2022-09-30T11:57:02;94737.66;;;24.76;44.80
11099;BME280;12223;42.650;23.364;2022-09-30T11:59:34;94731.97;;;24.77;44.73
11099;BME280;12223;42.650;23.364;2022-09-30T12:02:25;94743.72;;;24.81;44.45
11099;BME280;12223;42.650;23.364;2022-09-30T12:04:57;94747.41;;;24.85;43.53
11099;BME280;12223;42.650;23.364;2022-09-30T12:07:35;94746.94;;;24.83;44.36
11099;BME280;12223;42.650;23.364;2022-09-30T12:10:12;94747.19;;;24.73;42.68
11099;BME280;12223;42.650;23.364;2022-09-30T12:12:41;94751.00;;;24.95;42.84
11099;BME280;12223;42.650;23.364;2022-09-30T12:15:14;94742.34;;;24.84;42.00
11099;BME280;12223;42.650;23.364;2022-09-30T12:17:47;94746.13;;;24.83;43.93
11099;BME280;12223;42.650;23.364;2022-09-30T12:20:17;94754.97;;;25.28;42.24
11099;BME280;12223;42.650;23.364;2022-09-30T12:22:51;94740.78;;;25.62;41.02
11099;BME280;12223;42.650;23.364;2022-09-30T12:25:21;94751.72;;;26.14;40.03
11099;BME280;12223;42.650;23.364;2022-09-30T12:27:53;94760.50;;;26.62;39.83
11099;BME280;12223;42.650;23.364;2022-09-30T12:30:22;94752.97;;;26.94;38.20
11099;BME280;12223;42.650;23.364;2022-09-30T12:33:20;94748.75;;;27.22;38.29
11099;BME280;12223;42.650;23.364;2022-09-30T12:36:07;94759.88;;;27.38;37.77
11099;BME280;12223;42.650;23.364;2022-09-30T12:39:10;94767.03;;;27.42;36.54
11099;BME280;12223;42.650;23.364;2022-09-30T12:41:52;94756.03;;;27.39;36.66
11099;BME280;12223;42.650;23.364;2022-09-30T12:44:51;94757.50;;;27.36;36.46
11099;BME280;12223;42.650;23.364;2022-09-30T12:47:31;94753.38;;;27.21;36.12
11099;BME280;12223;42.650;23.364;2022-09-30T12:50:05;94755.19;;;27.09;36.16
11099;BME280;12223;42.650;23.364;2022-09-30T12:52:35;94750.25;;;26.94;36.19
11099;BME280;12223;42.650;23.364;2022-09-30T12:55:06;94748.34;;;26.94;36.50
11099;BME280;12223;42.650;23.364;2022-09-30T12:57:38;94746.63;;;26.72;37.42
11099;BME280;12223;42.650;23.364;2022-09-30T13:00:14;94752.81;;;26.81;37.47
11099;BME280;12223;42.650;23.364;2022-09-30T13:02:43;94764.31;;;26.70;37.35
11099;BME280;12223;42.650;23.364;2022-09-30T13:05:46;94754.13;;;26.67;37.32
11099;BME280;12223;42.650;23.364;2022-09-30T13:08:47;94769.41;;;26.63;37.11
11099;BME280;12223;42.650;23.364;2022-09-30T13:11:33;94765.59;;;26.64;37.12
11099;BME280;12223;42.650;23.364;2022-09-30T13:19:54;94748.53;;;26.63;36.48
11099;BME280;12223;42.650;23.364;2022-09-30T13:22:58;94759.06;;;26.56;37.04
11099;BME280;12223;42.650;23.364;2022-09-30T13:25:26;94765.75;;;26.67;36.98
11099;BME280;12223;42.650;23.364;2022-09-30T13:31:10;94768.94;;;26.69;36.57
11099;BME280;12223;42.650;23.364;2022-09-30T13:33:46;94765.41;;;26.69;36.36
11099;BME280;12223;42.650;23.364;2022-09-30T13:36:24;94764.31;;;26.70;35.91